EDAH

Heringsdorf Airport

Heringsdorf, Germany
METAR EDAH 191550Z 14006KT CAVOK 03/M02 Q1020
Observed Flight Rules
Feb-19 @ 15:50 UTC (16 hours ago) Visual Flight Rules
Wind Visibility Clouds
140° at 6 knots 10,000+ meters
  • Clear skies
Temperatures Readings
Current 3°C / 37°F
Dewpoint -2°C / 28°F
Humidity 70%
Altimeter 30.12" Hg
Pressure 1020 hPa
Elevation 28
METAR EDAH 191550Z 14006KT CAVOK 03/M02 Q1020
Observed Flight Rules
Feb-19 @ 15:50 UTC
(16 hours ago)
VFR
Wind Visibility
140° at 6 knots 10,000+ meters
Clouds
  • Clear skies
Temperature Dewpoint
3°C / 37°F -2°C / 28°F
Humidity Altimeter Pressure
70% 30.12" Hg 1020 hPa